| time (UTC) | temp F | wind direction | speed MPH | gust MPH | rain 1hr in | rain 24hr in | rain mn in | humidity % | barometer mb |
| 20260906040019 | 71 | 333 | 0.0 | 1.0 | 0.00 | 0.01 | 0.00 | 92 | 1010.5 |
| 20260906034511 | 72 | 101 | 0.0 | 1.0 | 0.00 | 0.01 | 0.01 | 92 | 1010.8 |
| 20260906033010 | 72 | 291 | 0.0 | 0.0 | 0.00 | 0.01 | 0.01 | 91 | 1010.8 |
| 20260906031509 | 73 | 256 | 0.0 | 2.0 | 0.00 | 0.01 | 0.01 | 90 | 1010.8 |
| 20260906030011 | 73 | 117 | 0.0 | 0.0 | 0.00 | 0.01 | 0.01 | 89 | 1010.8 |
| 20260906024528 | 74 | 116 | 0.0 | 1.0 | 0.00 | 0.01 | 0.01 | 87 | 1010.7 |
| 20260906023015 | 73 | 105 | 0.0 | 0.0 | 0.00 | 0.01 | 0.01 | 89 | 1010.7 |
| 20260906021510 | 72 | 78 | 0.0 | 0.0 | 0.00 | 0.01 | 0.01 | 90 | 1010.4 |
| 20260906020008 | 71 | 98 | 0.0 | 0.0 | 0.00 | 0.01 | 0.01 | 92 | 1010.1 |
| 20260906014510 | 72 | 99 | 0.0 | 0.0 | 0.00 | 0.01 | 0.01 | 91 | 1010.3 |
| 20260906013020 | 72 | 98 | 0.0 | 0.0 | 0.00 | 0.01 | 0.01 | 91 | 1010.2 |
| 20260906011506 | 72 | 98 | 0.0 | 0.0 | 0.00 | 0.01 | 0.01 | 91 | 1010.2 |
| 20260906010006 | 72 | 99 | 0.0 | 1.0 | 0.00 | 0.01 | 0.01 | 91 | 1010.0 |
| 20260906004506 | 73 | 124 | 0.0 | 0.0 | 0.00 | 0.01 | 0.01 | 89 | 1009.9 |
| 20260906003004 | 73 | 176 | 0.0 | 0.0 | 0.00 | 0.01 | 0.01 | 89 | 1009.8 |
| 20260906001502 | 74 | 207 | 0.0 | 0.0 | 0.00 | 0.01 | 0.01 | 87 | 1009.4 |
| 20260906000002 | 74 | 64 | 0.0 | 0.0 | 0.00 | 0.01 | 0.01 | 88 | 1009.4 |
| 20260905234503 | 74 | 96 | 0.0 | 2.0 | 0.00 | 0.01 | 0.01 | 88 | 1009.1 |
| 20260905233200 | 76 | 84 | 0.0 | 0.0 | 0.00 | 0.01 | 0.01 | 83 | 1009.1 |
| 20260905231600 | 78 | 51 | 0.0 | 0.0 | 0.00 | 0.01 | 0.01 | 82 | 1009.1 |
| 20260905230108 | 79 | 262 | 0.0 | 0.0 | 0.00 | 0.01 | 0.01 | 78 | 1009.1 |
| 20260905224613 | 78 | 304 | 0.0 | 2.0 | 0.00 | 0.01 | 0.01 | 78 | 1009.0 |
| 20260905223058 | 80 | 39 | 0.0 | 3.0 | 0.00 | 0.01 | 0.01 | 75 | 1008.9 |
| 20260905221612 | 80 | 47 | 0.0 | 1.0 | 0.00 | 0.01 | 0.01 | 74 | 1009.0 |
| 20260905220057 | 80 | 320 | 0.0 | 1.0 | 0.00 | 0.01 | 0.01 | 78 | 1009.0 |
| 20260905214557 | 78 | 311 | 0.0 | 1.0 | 0.00 | 0.01 | 0.01 | 78 | 1009.2 |
| 20260905213102 | 78 | 36 | 0.0 | 0.0 | 0.00 | 0.01 | 0.01 | 77 | 1009.4 |
| 20260905211556 | 78 | 269 | 0.0 | 1.0 | 0.00 | 0.01 | 0.01 | 78 | 1009.6 |
| 20260905210057 | 78 | 257 | 0.0 | 2.0 | 0.00 | 0.01 | 0.01 | 76 | 1009.6 |
| 20260905204553 | 78 | 24 | 0.0 | 2.0 | 0.00 | 0.01 | 0.01 | 78 | 1009.7 |
| 20260905203053 | 78 | 246 | 0.0 | 2.0 | 0.00 | 0.01 | 0.01 | 74 | 1009.9 |
| 20260905201607 | 78 | 254 | 0.0 | 3.0 | 0.00 | 0.01 | 0.01 | 76 | 1009.9 |
| 20260905200048 | 77 | 17 | 0.0 | 1.0 | 0.00 | 0.01 | 0.01 | 80 | 1010.3 |
| 20260905194549 | 75 | 221 | 0.0 | 2.0 | 0.01 | 0.01 | 0.01 | 82 | 1010.1 |
| 20260905193056 | 72 | 234 | 0.0 | 2.0 | 0.01 | 0.01 | 0.01 | 85 | 1010.0 |
| 20260905191546 | 72 | 335 | 0.0 | 1.0 | 0.01 | 0.01 | 0.01 | 88 | 1010.4 |
| 20260905190045 | 72 | 223 | 0.0 | 3.0 | 0.01 | 0.01 | 0.01 | 87 | 1010.1 |
| 20260905184549 | 75 | 273 | 3.0 | 21.0 | 0.00 | 0.00 | 0.00 | 76 | 1012.2 |
| 20260905183043 | 80 | 42 | 0.0 | 5.0 | 0.00 | 0.00 | 0.00 | 78 | 1010.8 |
| 20260905181556 | 82 | 299 | 0.0 | 1.0 | 0.00 | 0.00 | 0.00 | 79 | 1010.3 |
| 20260905180042 | 84 | 240 | 0.0 | 0.0 | 0.00 | 0.00 | 0.00 | 75 | 1010.3 |
| 20260905174540 | 85 | 309 | 0.0 | 4.0 | 0.00 | 0.00 | 0.00 | 67 | 1010.4 |
| 20260905173039 | 87 | 36 | 0.0 | 4.0 | 0.00 | 0.00 | 0.00 | 64 | 1010.6 |
| 20260905171537 | 87 | 292 | 0.0 | 5.0 | 0.00 | 0.00 | 0.00 | 63 | 1010.6 |
| 20260905170035 | 87 | 85 | 0.0 | 6.0 | 0.00 | 0.00 | 0.00 | 67 | 1010.7 |
| 20260905164534 | 86 | 264 | 0.0 | 5.0 | 0.00 | 0.00 | 0.00 | 68 | 1011.0 |
| 20260905163034 | 86 | 297 | 1.0 | 6.0 | 0.00 | 0.00 | 0.00 | 70 | 1011.3 |
| 20260905161529 | 85 | 357 | 1.0 | 8.0 | 0.00 | 0.00 | 0.00 | 70 | 1011.6 |
| 20260905160128 | 85 | 13 | 2.0 | 8.0 | 0.00 | 0.00 | 0.00 | 70 | 1011.5 |
| 20260905154527 | 85 | 75 | 0.0 | 3.0 | 0.00 | 0.00 | 0.00 | 70 | 1011.6 |
| 20260905153026 | 85 | 53 | 0.0 | 5.0 | 0.00 | 0.00 | 0.00 | 72 | 1011.6 |
| 20260905151526 | 84 | 25 | 1.0 | 6.0 | 0.00 | 0.00 | 0.00 | 73 | 1011.5 |
| 20260905150020 | 83 | 288 | 0.0 | 5.0 | 0.00 | 0.00 | 0.00 | 74 | 1011.6 |
| 20260905144517 | 83 | 42 | 0.0 | 5.0 | 0.00 | 0.00 | 0.00 | 75 | 1011.6 |
| 20260905143022 | 82 | 34 | 0.0 | 5.0 | 0.00 | 0.00 | 0.00 | 77 | 1011.8 |
| 20260905141512 | 81 | 25 | 0.0 | 3.0 | 0.00 | 0.00 | 0.00 | 78 | 1011.8 |
| 20260905140009 | 79 | 85 | 0.0 | 5.0 | 0.00 | 0.00 | 0.00 | 80 | 1011.9 |
| 20260905134505 | 78 | 105 | 0.0 | 3.0 | 0.00 | 0.00 | 0.00 | 82 | 1012.0 |
| 20260905133001 | 77 | 78 | 0.0 | 3.0 | 0.00 | 0.00 | 0.00 | 84 | 1012.2 |
| 20260905131607 | 76 | 349 | 0.0 | 1.0 | 0.00 | 0.00 | 0.00 | 86 | 1012.3 |
| 20260905130056 | 75 | 98 | 0.0 | 1.0 | 0.00 | 0.00 | 0.00 | 88 | 1012.3 |
| 20260905124556 | 74 | 203 | 0.0 | 0.0 | 0.00 | 0.00 | 0.00 | 88 | 1012.2 |
| 20260905123049 | 73 | 89 | 0.0 | 1.0 | 0.00 | 0.00 | 0.00 | 91 | 1012.1 |
| 20260905121547 | 73 | 113 | 0.0 | 0.0 | 0.00 | 0.00 | 0.00 | 91 | 1012.0 |
| 20260905120046 | 72 | 113 | 0.0 | 0.0 | 0.00 | 0.00 | 0.00 | 91 | 1012.0 |
| 20260905114547 | 72 | 113 | 0.0 | 0.0 | 0.00 | 0.00 | 0.00 | 90 | 1011.8 |
| 20260905113045 | 73 | 101 | 0.0 | 0.0 | 0.00 | 0.00 | 0.00 | 90 | 1011.6 |
| 20260905111554 | 73 | 33 | 0.0 | 0.0 | 0.00 | 0.00 | 0.00 | 90 | 1011.4 |
| 20260905110145 | 73 | 6 | 0.0 | 1.0 | 0.00 | 0.00 | 0.00 | 90 | 1011.2 |
| 20260905104557 | 73 | 75 | 0.0 | 0.0 | 0.00 | 0.00 | 0.00 | 90 | 1011.0 |
| 20260905103043 | 73 | 96 | 0.0 | 0.0 | 0.00 | 0.00 | 0.00 | 90 | 1011.0 |
| 20260905101542 | 73 | 255 | 0.0 | 1.0 | 0.00 | 0.00 | 0.00 | 89 | 1010.9 |
| 20260905100040 | 73 | 80 | 0.0 | 2.0 | 0.00 | 0.00 | 0.00 | 89 | 1010.9 |
| 20260905094538 | 73 | 110 | 0.0 | 1.0 | 0.00 | 0.00 | 0.00 | 90 | 1010.8 |
| 20260905093036 | 73 | 214 | 0.0 | 1.0 | 0.00 | 0.00 | 0.00 | 89 | 1010.8 |
| 20260905091539 | 73 | 206 | 0.0 | 0.0 | 0.00 | 0.00 | 0.00 | 90 | 1010.9 |
| 20260905090031 | 73 | 210 | 0.0 | 1.0 | 0.00 | 0.00 | 0.00 | 89 | 1010.8 |
| 20260905084527 | 73 | 229 | 0.0 | 0.0 | 0.00 | 0.00 | 0.00 | 89 | 1010.9 |
| 20260905083027 | 73 | 261 | 0.0 | 0.0 | 0.00 | 0.00 | 0.00 | 89 | 1011.2 |
| 20260905081522 | 74 | 282 | 0.0 | 0.0 | 0.00 | 0.00 | 0.00 | 88 | 1011.2 |
| 20260905080024 | 73 | 282 | 0.0 | 0.0 | 0.00 | 0.00 | 0.00 | 89 | 1011.4 |
| 20260905074512 | 73 | 282 | 0.0 | 0.0 | 0.00 | 0.00 | 0.00 | 89 | 1011.5 |
| 20260905073010 | 72 | 282 | 0.0 | 0.0 | 0.00 | 0.00 | 0.00 | 90 | 1011.6 |
| 20260905071508 | 72 | 282 | 0.0 | 0.0 | 0.00 | 0.00 | 0.00 | 92 | 1011.8 |
| 20260905070015 | 71 | 282 | 0.0 | 0.0 | 0.00 | 0.00 | 0.00 | 93 | 1011.8 |
| 20260905064505 | 71 | 220 | 0.0 | 0.0 | 0.00 | 0.00 | 0.00 | 94 | 1012.1 |
| 20260905063003 | 71 | 219 | 0.0 | 0.0 | 0.00 | 0.00 | 0.00 | 94 | 1012.1 |
| 20260905061615 | 71 | 219 | 0.0 | 0.0 | 0.00 | 0.00 | 0.00 | 94 | 1012.2 |
| 20260905060058 | 71 | 219 | 0.0 | 0.0 | 0.00 | 0.00 | 0.00 | 93 | 1012.2 |
| 20260905054601 | 72 | 219 | 0.0 | 0.0 | 0.00 | 0.00 | 0.00 | 92 | 1012.4 |
| 20260905053054 | 72 | 219 | 0.0 | 0.0 | 0.00 | 0.00 | 0.00 | 92 | 1012.4 |
| 20260905051553 | 72 | 219 | 0.0 | 0.0 | 0.00 | 0.00 | 0.00 | 91 | 1012.5 |
| 20260905050050 | 73 | 219 | 0.0 | 0.0 | 0.00 | 0.00 | 0.00 | 91 | 1012.6 |
| 20260905044549 | 73 | 219 | 0.0 | 0.0 | 0.00 | 0.00 | 0.00 | 90 | 1012.6 |
| 20260905043045 | 73 | 219 | 0.0 | 0.0 | 0.00 | 0.00 | 0.00 | 91 | 1012.3 |
| 20260905041545 | 73 | 219 | 0.0 | 0.0 | 0.00 | 0.00 | 0.00 | 91 | 1012.3 |